Hitachimaru — JD2063 — position and weather

sailwx.info

Track history (hours):
 
Tides and Currents Weather Stations Pressure Air Temp Water Temp Dewpoint Dewpoint Depression Visibility Wind Speed Wind Dir Waves Ship Positions

Hitachimaru

Last reported at 2016-Dec-06 09:33 UTC. Time now 2016-Dec-07 22:20 UTC.
Position N 35°10' E 139°46'.

Length 83 m; draft 4.7 m.

Type: Cargo ship. MMSI: 431301756.

Date/timePositionNaut miles runAvg speedWind from/ knotsBaromVisibWave heightAir tempDewpointWater temp
2016-Dec-06 09:33N 35°10' E 139°46'1312.0
2016-Dec-06 08:27N 35°23' E 139°42'1112.6
2016-Dec-06 07:33N 35°31' E 139°52'7 0.3
2016-Dec-05 10:32N 35°36' E 139°57'0 0.0
2016-Dec-05 05:29N 35°36' E 139°58'1011.0
2016-Dec-05 04:32N 35°28' E 139°51'255 9.3
2016-Dec-04 01:19N 34°01' E 134°59'1011.3
2016-Dec-04 00:26N 34°11' E 134°60'1910.0
2016-Dec-03 22:33N 34°28' E 135°09'1211.9
2016-Dec-03 21:33N 34°35' E 135°20'6 5.6
2016-Dec-03 20:33N 34°34' E 135°27'0 0.0
2016-Dec-03 19:23N 34°34' E 135°27'0 0.0
2016-Dec-03 18:29N 34°34' E 135°27'0 0.0
2016-Dec-03 17:05N 34°34' E 135°27'0 0.0
2016-Dec-03 16:29N 34°34' E 135°27'0 0.0
2016-Dec-03 15:17N 34°34' E 135°27'0 0.0
2016-Dec-03 14:23N 34°34' E 135°27'1 1.4
2016-Dec-03 13:29N 34°35' E 135°27'0 0.0
2016-Dec-03 12:29N 34°35' E 135°27'0 0.0
2016-Dec-03 11:29N 34°35' E 135°27'0 0.0
2016-Dec-03 10:17N 34°35' E 135°27'0 0.0
2016-Dec-03 09:23N 34°35' E 135°27'0 0.0
2016-Dec-03 08:23N 34°35' E 135°27'0 0.0
2016-Dec-03 07:29N 34°35' E 135°27'0 0.0
2016-Dec-03 06:29N 34°35' E 135°27'0 0.0
2016-Dec-03 05:29N 34°35' E 135°27'0 0.1
2016-Dec-03 04:22N 34°35' E 135°27'1 0.9
2016-Dec-03 03:10N 34°34' E 135°27'0 0.0
2016-Dec-03 02:28N 34°34' E 135°27'0 0.0
2016-Dec-02 23:22N 34°34' E 135°27'0 0.0
2016-Dec-02 22:16N 34°34' E 135°27'0 0.0
2016-Dec-02 21:22N 34°34' E 135°27'0 0.0
2016-Dec-02 20:28N 34°34' E 135°27'0 0.0
2016-Dec-02 19:10N 34°34' E 135°27'0 0.0
2016-Dec-02 18:28N 34°34' E 135°27'1 0.1
2016-Dec-02 07:33N 34°35' E 135°27'1 0.3
2016-Dec-02 03:29N 34°34' E 135°27'1 1.1
2016-Dec-02 02:22N 34°35' E 135°27'0 0.0
2016-Dec-02 01:28N 34°35' E 135°27'0 0.0
2016-Dec-02 00:28N 34°35' E 135°27'0 0.0
2016-Dec-01 23:28N 34°35' E 135°27'0 0.0
2016-Dec-01 22:16N 34°35' E 135°27'0 0.0
2016-Dec-01 21:28N 34°35' E 135°27'0 0.0
2016-Dec-01 20:33N 34°35' E 135°27'0 0.0
2016-Dec-01 19:27N 34°35' E 135°27'3 3.2
2016-Dec-01 18:33N 34°36' E 135°24'1212.2
2016-Dec-01 17:33N 34°34' E 135°09'1211.2
2016-Dec-01 16:31N 34°36' E 134°55'5 0.2
2016-Nov-30 20:29N 34°37' E 135°01'7 8.1
2016-Nov-30 19:34N 34°30' E 135°04'1211.2
2016-Nov-30 18:29N 34°19' E 134°60'910.2
2016-Nov-30 17:33N 34°09' E 135°00'  
Track history (hours):
 
Tides and Currents Weather Stations Pressure Air Temp Water Temp Dewpoint Dewpoint Depression Visibility Wind Speed Wind Dir Waves Ship Positions

Hitachimaru

Last reported at 2016-Dec-06 09:33 UTC. Time now 2016-Dec-07 22:20 UTC.
Position N 35°10' E 139°46'.

Length 83 m; draft 4.7 m.

Type: Cargo ship. MMSI: 431301756.

Date/timePositionNaut miles runAvg speedWind from/ knotsBaromVisibWave heightAir tempDewpointWater temp
2016-Dec-06 09:33N 35°10' E 139°46'1312.0
2016-Dec-06 08:27N 35°23' E 139°42'1112.6
2016-Dec-06 07:33N 35°31' E 139°52'7 0.3
2016-Dec-05 10:32N 35°36' E 139°57'0 0.0
2016-Dec-05 05:29N 35°36' E 139°58'1011.0
2016-Dec-05 04:32N 35°28' E 139°51'255 9.3
2016-Dec-04 01:19N 34°01' E 134°59'1011.3
2016-Dec-04 00:26N 34°11' E 134°60'1910.0
2016-Dec-03 22:33N 34°28' E 135°09'1211.9
2016-Dec-03 21:33N 34°35' E 135°20'6 5.6
2016-Dec-03 20:33N 34°34' E 135°27'0 0.0
2016-Dec-03 19:23N 34°34' E 135°27'0 0.0
2016-Dec-03 18:29N 34°34' E 135°27'0 0.0
2016-Dec-03 17:05N 34°34' E 135°27'0 0.0
2016-Dec-03 16:29N 34°34' E 135°27'0 0.0
2016-Dec-03 15:17N 34°34' E 135°27'0 0.0
2016-Dec-03 14:23N 34°34' E 135°27'1 1.4
2016-Dec-03 13:29N 34°35' E 135°27'0 0.0
2016-Dec-03 12:29N 34°35' E 135°27'0 0.0
2016-Dec-03 11:29N 34°35' E 135°27'0 0.0
2016-Dec-03 10:17N 34°35' E 135°27'0 0.0
2016-Dec-03 09:23N 34°35' E 135°27'0 0.0
2016-Dec-03 08:23N 34°35' E 135°27'0 0.0
2016-Dec-03 07:29N 34°35' E 135°27'0 0.0
2016-Dec-03 06:29N 34°35' E 135°27'0 0.0
2016-Dec-03 05:29N 34°35' E 135°27'0 0.1
2016-Dec-03 04:22N 34°35' E 135°27'1 0.9
2016-Dec-03 03:10N 34°34' E 135°27'0 0.0
2016-Dec-03 02:28N 34°34' E 135°27'0 0.0
2016-Dec-02 23:22N 34°34' E 135°27'0 0.0
2016-Dec-02 22:16N 34°34' E 135°27'0 0.0
2016-Dec-02 21:22N 34°34' E 135°27'0 0.0
2016-Dec-02 20:28N 34°34' E 135°27'0 0.0
2016-Dec-02 19:10N 34°34' E 135°27'0 0.0
2016-Dec-02 18:28N 34°34' E 135°27'1 0.1
2016-Dec-02 07:33N 34°35' E 135°27'1 0.3
2016-Dec-02 03:29N 34°34' E 135°27'1 1.1
2016-Dec-02 02:22N 34°35' E 135°27'0 0.0
2016-Dec-02 01:28N 34°35' E 135°27'0 0.0
2016-Dec-02 00:28N 34°35' E 135°27'0 0.0
2016-Dec-01 23:28N 34°35' E 135°27'0 0.0
2016-Dec-01 22:16N 34°35' E 135°27'0 0.0
2016-Dec-01 21:28N 34°35' E 135°27'0 0.0
2016-Dec-01 20:33N 34°35' E 135°27'0 0.0
2016-Dec-01 19:27N 34°35' E 135°27'3 3.2
2016-Dec-01 18:33N 34°36' E 135°24'1212.2
2016-Dec-01 17:33N 34°34' E 135°09'1211.2
2016-Dec-01 16:31N 34°36' E 134°55'5 0.2
2016-Nov-30 20:29N 34°37' E 135°01'7 8.1
2016-Nov-30 19:34N 34°30' E 135°04'1211.2
2016-Nov-30 18:29N 34°19' E 134°60'910.2
2016-Nov-30 17:33N 34°09' E 135°00'  

Dump ship's entire track history